Maldives Meteorological Service

METAR

Station
VRMM
METAR VRMM 240700Z 07006KT 9999 FEW018 31/25 Q1011 NOSIG=
VRMH
METAR VRMH 240800Z 12004KT 9999 FEW018 31/24 Q1011=
VRMK
METAR VRMK 240700Z 05005KT 9999 FEW018 SCT130 31/24 Q1011=
VRMT
METAR VRMT 240800Z 10004KT 9999 FEW018 32/25 Q1010=
VRMG
METAR VRMG 240700Z 05004KT 9999 FEW019 FEW020CB 32/24 Q1011 CB SE=
Last Updated : 2017-03-24 12:01:59

SPECI

Station
VRMM
VRMH
VRMK
VRMT
VRMG
Last Updated : 2017-03-24 12:01:59